createdAt,value
2018-09-21T00:00:46.221Z,98681.83
2018-09-21T00:03:15.412Z,98675.42
2018-09-21T00:05:44.668Z,98676.78
2018-09-21T00:08:13.813Z,98678.68
2018-09-21T00:10:42.965Z,98679.25
2018-09-21T00:13:12.220Z,98670.38
2018-09-21T00:15:41.400Z,98670.91
2018-09-21T00:18:10.525Z,98665.25
2018-09-21T00:20:39.714Z,98656.97
2018-09-21T00:23:09.039Z,98653.74
2018-09-21T00:25:38.177Z,98652.70
2018-09-21T00:28:07.371Z,98651.66
2018-09-21T00:30:40.271Z,98647.11
2018-09-21T00:33:09.644Z,98642.81
2018-09-21T00:35:39.018Z,98647.66
2018-09-21T00:38:08.143Z,98647.11
2018-09-21T00:40:37.436Z,98642.84
2018-09-21T00:43:06.712Z,98642.29
2018-09-21T00:45:35.845Z,98637.44
2018-09-21T00:48:05.021Z,98628.30
2018-09-21T00:50:34.158Z,98630.23
2018-09-21T00:53:03.328Z,98635.58
2018-09-21T00:55:32.655Z,98628.36
2018-09-21T00:58:01.958Z,98627.53
2018-09-21T01:00:31.101Z,98621.35
2018-09-21T01:03:03.598Z,98621.92
2018-09-21T01:05:32.859Z,98619.22
2018-09-21T01:08:01.990Z,98619.80
2018-09-21T01:10:31.187Z,98619.80
2018-09-21T01:13:00.315Z,98618.47
2018-09-21T01:15:29.476Z,98618.21
2018-09-21T01:17:58.653Z,98611.74
2018-09-21T01:20:27.776Z,98612.02
2018-09-21T01:22:56.941Z,98607.18
2018-09-21T01:25:26.209Z,98603.16
2018-09-21T01:27:55.349Z,98604.52
2018-09-21T01:30:24.498Z,98607.22
2018-09-21T01:32:53.729Z,98606.94
2018-09-21T01:35:23.033Z,98605.08
2018-09-21T01:37:52.319Z,98602.67
2018-09-21T01:40:22.242Z,98601.33
2018-09-21T01:42:51.366Z,98597.01
2018-09-21T01:45:20.550Z,98591.92
2018-09-21T01:47:49.712Z,98589.78
2018-09-21T01:50:18.869Z,98587.11
2018-09-21T01:52:48.018Z,98586.06
2018-09-21T01:55:17.170Z,98577.47
2018-09-21T01:57:46.930Z,98575.36
2018-09-21T02:00:16.133Z,98573.75
2018-09-21T02:02:45.257Z,98571.08
2018-09-21T02:05:14.427Z,98569.98
2018-09-21T02:07:43.561Z,98571.32
2018-09-21T02:10:14.444Z,98570.53
2018-09-21T02:12:43.583Z,98563.83
2018-09-21T02:15:12.725Z,98570.26
2018-09-21T02:17:41.885Z,98567.58
2018-09-21T02:20:11.010Z,98567.30
2018-09-21T02:22:40.183Z,98569.20
2018-09-21T02:25:09.379Z,98567.04
2018-09-21T02:27:38.513Z,98569.98
2018-09-21T02:30:07.740Z,98559.79
2018-09-21T02:32:36.892Z,98569.19
2018-09-21T02:35:06.488Z,98563.02
2018-09-21T02:37:35.623Z,98557.37
2018-09-21T02:40:04.991Z,98559.52
2018-09-21T02:42:34.142Z,98558.70
2018-09-21T02:45:03.292Z,98563.02
2018-09-21T02:47:32.461Z,98568.95
2018-09-21T02:50:01.599Z,98556.89
2018-09-21T02:52:30.788Z,98559.05
2018-09-21T02:54:59.933Z,98559.34
2018-09-21T02:57:29.120Z,98548.34
2018-09-21T02:59:58.491Z,98555.58
2018-09-21T03:02:27.684Z,98553.95
2018-09-21T03:04:57.401Z,98549.41
2018-09-21T03:07:26.596Z,98546.73
2018-09-21T03:09:55.926Z,98544.59
2018-09-21T03:12:25.093Z,98537.36
2018-09-21T03:14:54.284Z,98534.94
2018-09-21T03:17:23.424Z,98533.08
2018-09-21T03:19:52.580Z,98542.20
2018-09-21T03:22:21.716Z,98544.89
2018-09-21T03:24:50.913Z,98543.55
2018-09-21T03:27:20.062Z,98543.27
2018-09-21T03:29:49.193Z,98534.95
2018-09-21T03:32:18.357Z,98538.44
2018-09-21T03:34:47.542Z,98533.89
2018-09-21T03:37:16.691Z,98536.04
2018-09-21T03:39:45.845Z,98530.94
2018-09-21T03:42:14.997Z,98521.84
2018-09-21T03:44:44.133Z,98524.50
2018-09-21T03:47:13.263Z,98519.13
2018-09-21T03:49:42.668Z,98506.83
2018-09-21T03:52:11.821Z,98524.27
2018-09-21T03:54:40.993Z,98516.23
2018-09-21T03:57:10.179Z,98510.06
2018-09-21T03:59:39.325Z,98513.52
2018-09-21T04:02:08.560Z,98513.28
2018-09-21T04:04:41.182Z,98511.66
2018-09-21T04:07:11.113Z,98515.96
2018-09-21T04:09:40.277Z,98508.97
2018-09-21T04:12:09.412Z,98508.70
2018-09-21T04:14:38.582Z,98508.17
2018-09-21T04:17:07.968Z,98509.50
2018-09-21T04:19:37.197Z,98504.67
2018-09-21T04:22:06.357Z,98495.30
2018-09-21T04:24:35.507Z,98506.30
2018-09-21T04:27:04.839Z,98505.21
2018-09-21T04:29:34.107Z,98500.95
2018-09-21T04:32:03.329Z,98504.16
2018-09-21T04:34:32.579Z,98499.59
2018-09-21T04:37:01.761Z,98498.53
2018-09-21T04:39:31.228Z,98495.05
2018-09-21T04:42:00.344Z,98495.83
2018-09-21T04:44:29.487Z,98498.27
2018-09-21T04:46:58.615Z,98499.32
2018-09-21T04:49:27.733Z,98491.84
2018-09-21T04:51:56.903Z,98493.95
2018-09-21T04:54:26.024Z,98497.19
2018-09-21T04:56:55.253Z,98490.20
2018-09-21T04:59:24.409Z,98493.98
2018-09-21T05:01:53.529Z,98490.20
2018-09-21T05:04:22.694Z,98491.54
2018-09-21T05:06:51.907Z,98491.54
2018-09-21T05:09:21.048Z,98495.30
2018-09-21T05:11:50.205Z,98491.55
2018-09-21T05:14:19.421Z,98491.02
2018-09-21T05:16:48.606Z,98494.50
2018-09-21T05:19:17.778Z,98441.20
2018-09-21T05:21:46.932Z,98498.49
2018-09-21T05:24:16.051Z,98502.00
2018-09-21T05:26:45.173Z,98494.75
2018-09-21T05:29:14.316Z,98498.23
2018-09-21T05:31:43.454Z,98496.89
2018-09-21T05:34:12.632Z,98494.46
2018-09-21T05:36:41.742Z,98498.72
2018-09-21T05:39:13.094Z,98502.71
2018-09-21T05:41:42.254Z,98492.77
2018-09-21T05:44:12.076Z,98499.72
2018-09-21T05:46:41.981Z,98501.31
2018-09-21T05:49:11.137Z,98499.41
2018-09-21T05:51:40.323Z,98494.52
2018-09-21T05:54:09.448Z,98488.54
2018-09-21T05:56:39.331Z,98487.16
2018-09-21T05:59:08.593Z,98485.23
2018-09-21T06:01:37.794Z,98484.36
2018-09-21T06:04:07.054Z,98479.22
2018-09-21T06:06:36.241Z,98475.13
2018-09-21T06:09:08.561Z,98430.89
2018-09-21T06:11:37.818Z,98467.16
2018-09-21T06:14:07.331Z,98470.30
2018-09-21T06:16:36.397Z,98468.06
2018-09-21T06:19:05.806Z,98460.72
2018-09-21T06:21:35.285Z,98468.69
2018-09-21T06:24:04.923Z,98469.61
2018-09-21T06:26:34.052Z,98461.16
2018-09-21T06:29:03.198Z,98468.83
2018-09-21T06:31:32.340Z,98471.59
2018-09-21T06:34:01.489Z,98470.19
2018-09-21T06:36:30.623Z,98478.63
2018-09-21T06:38:59.796Z,98468.82
2018-09-21T06:41:28.967Z,98475.17
2018-09-21T06:43:58.468Z,98470.14
2018-09-21T06:46:27.597Z,98463.05
2018-09-21T06:48:56.724Z,98459.88
2018-09-21T06:51:25.874Z,98458.41
2018-09-21T06:53:55.054Z,98455.63
2018-09-21T06:56:25.079Z,98451.20
2018-09-21T06:58:55.090Z,98451.64
2018-09-21T07:01:24.898Z,98451.14
2018-09-21T07:03:54.233Z,98451.33
2018-09-21T07:06:23.462Z,98456.09
2018-09-21T07:08:54.321Z,98449.37
2018-09-21T07:11:23.678Z,98447.76
2018-09-21T07:13:53.213Z,98452.31
2018-09-21T07:16:22.718Z,98451.48
2018-09-21T07:18:52.594Z,98442.81
2018-09-21T07:21:22.595Z,98447.53
2018-09-21T07:23:51.769Z,98441.78
2018-09-21T07:26:20.940Z,98445.66
2018-09-21T07:28:50.658Z,98448.59
2018-09-21T07:31:19.836Z,98446.83
2018-09-21T07:33:49.126Z,98446.65
2018-09-21T07:36:18.248Z,98443.33
2018-09-21T07:38:47.552Z,98446.06
2018-09-21T07:41:16.905Z,98448.41
2018-09-21T07:43:46.601Z,98441.50
2018-09-21T07:46:15.968Z,98445.80
2018-09-21T07:48:45.170Z,98442.66
2018-09-21T07:51:14.372Z,98448.11
2018-09-21T07:53:43.689Z,98444.51
2018-09-21T07:56:13.045Z,98446.81
2018-09-21T07:58:42.270Z,98447.28
2018-09-21T08:01:11.529Z,98444.27
2018-09-21T08:03:40.825Z,98441.88
2018-09-21T08:06:10.052Z,98438.48
2018-09-21T08:08:39.300Z,98429.88
2018-09-21T08:11:08.810Z,98429.17
2018-09-21T08:13:37.986Z,98428.20
2018-09-21T08:16:07.149Z,98416.38
2018-09-21T08:18:36.360Z,98427.56
2018-09-21T08:21:05.673Z,98421.61
2018-09-21T08:23:35.348Z,98423.30
2018-09-21T08:26:04.464Z,98421.03
2018-09-21T08:28:34.242Z,98422.53
2018-09-21T08:31:03.759Z,98420.44
2018-09-21T08:33:33.140Z,98423.11
2018-09-21T08:36:02.394Z,98415.08
2018-09-21T08:38:31.842Z,98416.13
2018-09-21T08:41:01.154Z,98406.23
2018-09-21T08:43:30.381Z,98406.64
2018-09-21T08:46:00.901Z,98401.03
2018-09-21T08:48:30.106Z,98401.19
2018-09-21T08:50:59.252Z,98393.86
2018-09-21T08:53:29.209Z,98394.22
2018-09-21T08:55:58.465Z,98396.61
2018-09-21T08:58:27.574Z,98385.98
2018-09-21T09:00:57.069Z,98388.56
2018-09-21T09:03:26.352Z,98382.98
2018-09-21T09:05:55.549Z,98384.84
2018-09-21T09:08:26.065Z,98382.89
2018-09-21T09:10:55.411Z,98382.42
2018-09-21T09:13:24.609Z,98380.16
2018-09-21T09:15:54.021Z,98383.84
2018-09-21T09:18:23.208Z,98382.75
2018-09-21T09:20:52.365Z,98377.76
2018-09-21T09:23:21.846Z,98372.66
2018-09-21T09:25:51.128Z,98371.41
2018-09-21T09:28:20.299Z,98375.95
2018-09-21T09:30:49.744Z,98371.16
2018-09-21T09:33:18.882Z,98370.49
2018-09-21T09:35:48.039Z,98375.06
2018-09-21T09:38:17.214Z,98369.64
2018-09-21T09:40:46.482Z,98369.36
2018-09-21T09:43:15.653Z,98367.47
2018-09-21T09:45:44.790Z,98363.70
2018-09-21T09:48:14.054Z,98349.50
2018-09-21T09:50:43.179Z,98357.57
2018-09-21T09:53:12.353Z,98347.02
2018-09-21T09:55:41.507Z,98344.49
2018-09-21T09:58:10.705Z,98352.15
2018-09-21T10:00:45.233Z,98347.36
2018-09-21T10:03:14.447Z,98343.34
2018-09-21T10:05:44.512Z,98346.64
2018-09-21T10:08:14.241Z,98341.60
2018-09-21T10:10:43.406Z,98345.76
2018-09-21T10:13:12.579Z,98340.98
2018-09-21T10:15:41.765Z,98337.41
2018-09-21T10:18:10.940Z,98342.16
2018-09-21T10:20:40.338Z,98344.06
2018-09-21T10:23:09.634Z,98342.84
2018-09-21T10:25:38.755Z,98335.00
2018-09-21T10:28:08.086Z,98324.01
2018-09-21T10:30:37.190Z,98326.50
2018-09-21T10:33:06.493Z,98324.88
2018-09-21T10:35:35.703Z,98322.30
2018-09-21T10:38:04.776Z,98324.73
2018-09-21T10:40:33.927Z,98323.80
2018-09-21T10:43:03.206Z,98320.74
2018-09-21T10:45:32.221Z,98317.68
2018-09-21T10:48:01.347Z,98317.78
2018-09-21T10:50:30.482Z,98322.63
2018-09-21T10:52:59.666Z,98320.51
2018-09-21T10:55:28.815Z,98319.59
2018-09-21T10:57:58.009Z,98310.83
2018-09-21T11:00:28.164Z,98307.72
2018-09-21T11:02:57.301Z,98311.82
2018-09-21T11:05:26.460Z,98306.16
2018-09-21T11:07:55.596Z,98308.48
2018-09-21T11:10:24.717Z,98302.17
2018-09-21T11:12:53.889Z,98304.91
2018-09-21T11:15:23.016Z,98308.37
2018-09-21T11:17:52.802Z,98304.69
2018-09-21T11:20:21.938Z,98305.04
2018-09-21T11:22:51.153Z,98298.43
2018-09-21T11:25:20.281Z,98298.36
2018-09-21T11:27:49.401Z,98299.92
2018-09-21T11:30:18.587Z,98288.69
2018-09-21T11:32:47.969Z,98280.92
2018-09-21T11:35:17.149Z,98278.06
2018-09-21T11:37:46.611Z,98275.62
2018-09-21T11:40:15.869Z,98283.60
2018-09-21T11:42:45.040Z,98277.56
2018-09-21T11:45:14.451Z,98284.83
2018-09-21T11:47:47.402Z,98281.75
2018-09-21T11:50:16.652Z,98269.55
2018-09-21T11:52:45.758Z,98264.91
2018-09-21T11:55:15.093Z,98255.46
2018-09-21T11:57:44.331Z,98261.05
2018-09-21T12:00:13.546Z,98264.11
2018-09-21T12:02:46.507Z,98254.63
2018-09-21T12:05:15.737Z,98252.31
2018-09-21T12:07:44.873Z,98243.59
2018-09-21T12:10:14.169Z,98246.76
2018-09-21T12:12:43.392Z,98246.59
2018-09-21T12:15:12.565Z,98240.95
2018-09-21T12:17:41.791Z,98234.27
2018-09-21T12:20:10.948Z,98230.33
2018-09-21T12:22:40.129Z,98230.98
2018-09-21T12:25:09.382Z,98226.66
2018-09-21T12:27:38.640Z,98234.09
2018-09-21T12:30:15.309Z,98229.94
2018-09-21T12:32:44.452Z,98229.08
2018-09-21T12:35:13.657Z,98220.38
2018-09-21T12:37:42.877Z,98224.83
2018-09-21T12:40:12.236Z,98228.03
2018-09-21T12:42:41.349Z,98219.05
2018-09-21T12:45:10.579Z,98216.92
2018-09-21T12:47:39.763Z,98213.41
2018-09-21T12:50:08.957Z,98213.62
2018-09-21T12:52:38.482Z,98212.83
2018-09-21T12:55:07.847Z,98201.80
2018-09-21T12:57:37.192Z,98204.55
2018-09-21T13:00:08.526Z,98205.43
2018-09-21T13:02:38.155Z,98199.91
2018-09-21T13:05:07.711Z,98208.70
2018-09-21T13:07:37.663Z,98199.05
2018-09-21T13:10:08.436Z,98205.39
2018-09-21T13:12:38.132Z,98187.30
2018-09-21T13:15:07.637Z,98188.45
2018-09-21T13:17:36.840Z,98181.95
2018-09-21T13:20:06.339Z,98179.67
2018-09-21T13:22:35.591Z,98171.77
2018-09-21T13:25:04.896Z,98169.28
2018-09-21T13:27:34.663Z,98163.36
2018-09-21T13:30:04.828Z,98162.33
2018-09-21T13:32:34.031Z,98155.87
2018-09-21T13:35:03.300Z,98153.77
2018-09-21T13:37:32.478Z,98149.19
2018-09-21T13:40:01.653Z,98148.84
2018-09-21T13:42:30.825Z,98143.40
2018-09-21T13:45:00.053Z,98139.43
2018-09-21T13:47:29.217Z,98137.82
2018-09-21T13:49:58.360Z,98130.71
2018-09-21T13:52:27.557Z,98121.34
2018-09-21T13:54:56.744Z,98124.08
2018-09-21T13:57:26.189Z,98119.13
2018-09-21T13:59:55.545Z,98129.15
2018-09-21T14:02:24.735Z,98119.66
2018-09-21T14:04:54.052Z,98118.05
2018-09-21T14:07:23.296Z,98117.36
2018-09-21T14:09:52.617Z,98114.53
2018-09-21T14:12:21.822Z,98116.36
2018-09-21T14:14:51.129Z,98115.19
2018-09-21T14:17:20.293Z,98117.44
2018-09-21T14:19:49.761Z,98118.44
2018-09-21T14:22:18.935Z,98118.09
2018-09-21T14:24:48.181Z,98106.05
2018-09-21T14:27:17.365Z,98109.80
2018-09-21T14:29:46.612Z,98100.97
2018-09-21T14:32:16.137Z,98095.66
2018-09-21T14:34:45.509Z,98096.64
2018-09-21T14:37:15.073Z,98091.69
2018-09-21T14:39:44.264Z,98094.66
2018-09-21T14:42:13.761Z,98094.41
2018-09-21T14:44:42.989Z,98092.45
2018-09-21T14:47:13.260Z,98089.71
2018-09-21T14:49:42.503Z,98094.41
2018-09-21T14:52:11.951Z,98087.12
2018-09-21T14:54:41.050Z,98089.55
2018-09-21T14:57:10.245Z,98093.00
2018-09-21T14:59:40.773Z,98097.27
2018-09-21T15:02:10.082Z,98098.05
2018-09-21T15:04:39.383Z,98099.00
2018-09-21T15:07:09.148Z,98097.94
2018-09-21T15:09:38.472Z,98107.28
2018-09-21T15:12:07.693Z,98094.08
2018-09-21T15:14:38.453Z,98106.09
2018-09-21T15:17:07.813Z,98107.28
2018-09-21T15:19:36.991Z,98104.94
2018-09-21T15:22:06.530Z,98102.28
2018-09-21T15:24:35.718Z,98103.92
2018-09-21T15:27:05.285Z,98104.61
2018-09-21T15:29:34.399Z,98096.95
2018-09-21T15:32:03.553Z,98102.73
2018-09-21T15:34:32.691Z,98095.44
2018-09-21T15:37:01.832Z,98094.59
2018-09-21T15:39:30.938Z,98090.25
2018-09-21T15:42:01.023Z,98082.28
2018-09-21T15:44:30.171Z,98082.80
2018-09-21T15:46:59.332Z,98083.89
2018-09-21T15:49:28.534Z,98088.45
2018-09-21T15:51:57.756Z,98078.16
2018-09-21T15:54:27.152Z,98075.77
2018-09-21T15:56:56.373Z,98072.10
2018-09-21T15:59:25.566Z,98074.11
2018-09-21T16:01:54.766Z,98072.89
2018-09-21T16:04:23.900Z,98071.63
2018-09-21T16:06:53.079Z,98067.22
2018-09-21T16:09:22.212Z,98062.39
2018-09-21T16:11:51.343Z,98056.45
2018-09-21T16:14:20.535Z,98058.88
2018-09-21T16:16:49.652Z,98055.45
2018-09-21T16:19:19.898Z,98052.05
2018-09-21T16:21:49.389Z,98054.48
2018-09-21T16:24:18.553Z,98052.90
2018-09-21T16:26:48.011Z,98048.54
2018-09-21T16:29:17.449Z,98046.94
2018-09-21T16:31:46.606Z,98047.69
2018-09-21T16:34:16.022Z,98045.01
2018-09-21T16:36:45.483Z,98051.26
2018-09-21T16:39:14.668Z,98057.95
2018-09-21T16:41:44.046Z,98050.19
2018-09-21T16:44:13.266Z,98054.03
2018-09-21T16:46:42.784Z,98048.61
2018-09-21T16:49:12.248Z,98044.03
2018-09-21T16:51:41.453Z,98047.45
2018-09-21T16:54:10.561Z,98040.38
2018-09-21T16:56:40.452Z,98040.48
2018-09-21T16:59:09.627Z,98042.31
2018-09-21T17:01:38.754Z,98043.29
2018-09-21T17:04:08.775Z,98042.03
2018-09-21T17:06:37.954Z,98036.44
2018-09-21T17:09:09.985Z,98034.63
2018-09-21T17:11:39.125Z,98037.52
2018-09-21T17:14:09.225Z,98034.81
2018-09-21T17:16:38.694Z,98039.48
2018-09-21T17:19:08.537Z,98042.16
2018-09-21T17:21:37.737Z,98044.11
2018-09-21T17:24:07.014Z,98048.45
2018-09-21T17:26:36.475Z,98041.23
2018-09-21T17:29:05.817Z,98047.48
2018-09-21T17:31:35.131Z,98045.77
2018-09-21T17:34:04.253Z,98041.45
2018-09-21T17:36:33.471Z,98037.97
2018-09-21T17:39:02.738Z,98047.83
2018-09-21T17:41:31.864Z,98047.86
2018-09-21T17:44:01.094Z,98057.37
2018-09-21T17:46:30.251Z,98058.50
2018-09-21T17:48:59.682Z,98067.14
2018-09-21T17:51:29.298Z,98066.78
2018-09-21T17:53:58.460Z,98058.05
2018-09-21T17:56:27.628Z,98054.77
2018-09-21T17:58:56.765Z,98068.03
2018-09-21T18:01:26.101Z,98061.67
2018-09-21T18:03:55.338Z,98065.77
2018-09-21T18:06:24.496Z,98065.73
2018-09-21T18:08:53.676Z,98071.39
2018-09-21T18:11:23.770Z,98070.02
2018-09-21T18:13:53.001Z,98069.31
2018-09-21T18:16:22.252Z,98070.89
2018-09-21T18:18:51.450Z,98072.00
2018-09-21T18:21:20.587Z,98074.91
2018-09-21T18:23:49.980Z,98074.44
2018-09-21T18:26:19.085Z,98078.45
2018-09-21T18:28:48.259Z,98079.54
2018-09-21T18:31:17.489Z,98075.27
2018-09-21T18:33:46.687Z,98076.09
2018-09-21T18:36:15.801Z,98082.82
2018-09-21T18:38:45.004Z,98088.10
2018-09-21T18:41:14.178Z,98080.62
2018-09-21T18:43:43.426Z,98080.62
2018-09-21T18:46:12.548Z,98084.23
2018-09-21T18:48:41.744Z,98086.36
2018-09-21T18:51:10.989Z,98080.16
2018-09-21T18:53:40.825Z,98082.17
2018-09-21T18:56:09.938Z,98082.39
2018-09-21T18:58:39.062Z,98088.81
2018-09-21T19:01:08.301Z,98091.62
2018-09-21T19:03:37.441Z,98103.59
2018-09-21T19:06:06.637Z,98094.44
2018-09-21T19:08:35.810Z,98095.79
2018-09-21T19:11:04.985Z,98094.89
2018-09-21T19:13:34.148Z,98093.68
2018-09-21T19:16:03.928Z,98097.75
2018-09-21T19:18:33.091Z,98102.18
2018-09-21T19:21:02.242Z,98107.70
2018-09-21T19:23:31.437Z,98107.24
2018-09-21T19:26:01.550Z,98107.04
2018-09-21T19:28:30.707Z,98107.04
2018-09-21T19:31:01.502Z,98106.39
2018-09-21T19:33:30.672Z,98107.65
2018-09-21T19:35:59.845Z,98105.52
2018-09-21T19:38:29.111Z,98109.80
2018-09-21T19:40:58.313Z,98107.89
2018-09-21T19:43:27.510Z,98113.01
2018-09-21T19:45:56.668Z,98114.12
2018-09-21T19:48:25.833Z,98117.39
2018-09-21T19:50:55.071Z,98075.64
2018-09-21T19:53:25.445Z,98128.18
2018-09-21T19:55:54.621Z,98132.80
2018-09-21T19:58:23.863Z,98130.80
2018-09-21T20:00:53.084Z,98143.40
2018-09-21T20:03:22.685Z,98180.89
2018-09-21T20:05:51.870Z,98195.08
2018-09-21T20:08:21.096Z,98200.86
2018-09-21T20:10:50.308Z,98197.23
2018-09-21T20:13:19.582Z,98192.05
2018-09-21T20:15:48.765Z,98184.18
2018-09-21T20:18:18.050Z,98199.57
2018-09-21T20:20:48.666Z,98203.19
2018-09-21T20:23:17.788Z,98210.53
2018-09-21T20:25:47.865Z,98226.67
2018-09-21T20:28:17.089Z,98260.98
2018-09-21T20:30:51.430Z,98303.88
2018-09-21T20:33:25.675Z,98309.52
2018-09-21T20:35:54.868Z,98312.14
2018-09-21T20:41:02.496Z,98321.20
2018-09-21T20:43:32.145Z,98324.00
2018-09-21T20:46:01.293Z,98331.80
2018-09-21T20:48:30.435Z,98336.59
2018-09-21T20:50:59.564Z,98338.20
2018-09-21T20:53:28.680Z,98361.16
2018-09-21T20:55:57.854Z,98369.11
2018-09-21T20:58:26.996Z,98376.45
2018-09-21T21:00:56.199Z,98373.94
2018-09-21T21:03:26.884Z,98365.75
2018-09-21T21:05:56.002Z,98361.44
2018-09-21T21:08:25.484Z,98360.96
2018-09-21T21:11:04.496Z,98358.33
2018-09-21T21:13:34.657Z,98364.05
2018-09-21T21:16:03.837Z,98364.38
2018-09-21T21:18:32.992Z,98375.51
2018-09-21T21:21:02.242Z,98378.45
2018-09-21T21:23:31.382Z,98378.94
2018-09-21T21:26:02.213Z,98377.66
2018-09-21T21:28:31.507Z,98376.70
2018-09-21T21:31:00.711Z,98385.30
2018-09-21T21:33:29.832Z,98387.76
2018-09-21T21:35:59.337Z,98388.56
2018-09-21T21:38:31.536Z,98391.02
2018-09-21T21:41:00.786Z,98399.77
2018-09-21T21:43:30.277Z,98398.99
2018-09-21T21:46:02.379Z,98403.67
2018-09-21T21:48:31.593Z,98400.97
2018-09-21T21:51:03.591Z,98405.03
2018-09-21T21:53:33.146Z,98413.15
2018-09-21T21:56:02.322Z,98419.84
2018-09-21T21:58:32.063Z,98425.08
2018-09-21T22:01:06.548Z,98428.88
2018-09-21T22:03:35.902Z,98434.37
2018-09-21T22:06:06.687Z,98452.22
2018-09-21T22:08:38.048Z,98446.37
2018-09-21T22:11:16.928Z,98443.95
2018-09-21T22:13:51.465Z,98449.05
2018-09-21T22:16:20.699Z,98442.02
2018-09-21T22:18:50.283Z,98447.62
2018-09-21T22:21:19.489Z,98452.23
2018-09-21T22:23:48.624Z,98456.11
2018-09-21T22:26:17.824Z,98458.34
2018-09-21T22:28:47.201Z,98460.50
2018-09-21T22:31:16.439Z,98461.13
2018-09-21T22:33:45.588Z,98471.95
2018-09-21T22:36:14.744Z,98467.41
2018-09-21T22:38:44.008Z,98469.54
2018-09-21T22:41:13.862Z,98479.34
2018-09-21T22:43:43.026Z,98482.05
2018-09-21T22:46:12.228Z,98487.72
2018-09-21T22:48:41.469Z,98498.70
2018-09-21T22:51:10.611Z,98502.59
2018-09-21T22:53:41.913Z,98511.45
2018-09-21T22:56:11.106Z,98516.86
2018-09-21T22:58:40.358Z,98525.83
2018-09-21T23:01:10.395Z,98533.96
2018-09-21T23:03:39.645Z,98537.06
2018-09-21T23:06:09.076Z,98540.62
2018-09-21T23:08:38.233Z,98554.27
2018-09-21T23:11:07.693Z,98565.48
2018-09-21T23:13:36.776Z,98573.72
2018-09-21T23:16:05.953Z,98579.78
2018-09-21T23:18:35.110Z,98591.70
2018-09-21T23:21:04.282Z,98598.47
2018-09-21T23:23:33.438Z,98616.61
2018-09-21T23:26:02.650Z,98642.31
2018-09-21T23:28:31.743Z,98664.36
2018-09-21T23:31:00.846Z,98671.36
2018-09-21T23:33:29.978Z,98690.11
2018-09-21T23:35:59.096Z,98725.12
2018-09-21T23:38:28.309Z,98743.69
2018-09-21T23:40:57.549Z,98778.98
2018-09-21T23:43:26.719Z,98795.12
2018-09-21T23:45:55.839Z,98798.79
2018-09-21T23:48:24.998Z,98821.86
2018-09-21T23:50:54.141Z,98838.75
2018-09-21T23:53:23.881Z,98859.27
2018-09-21T23:55:53.044Z,98866.86
2018-09-21T23:58:22.227Z,98859.73
